createdAt,value
2022-12-23T00:01:32.746Z,62.84
2022-12-23T00:03:36.078Z,62.59
2022-12-23T00:05:39.360Z,62.60
2022-12-23T00:07:41.565Z,62.67
2022-12-23T00:09:45.532Z,62.64
2022-12-23T00:12:06.467Z,62.75
2022-12-23T00:14:47.087Z,62.64
2022-12-23T00:16:50.950Z,62.64
2022-12-23T00:18:54.457Z,62.44
2022-12-23T00:21:08.841Z,62.96
2022-12-23T00:23:11.484Z,62.88
2022-12-23T00:25:17.047Z,62.75
2022-12-23T00:27:19.073Z,62.42
2022-12-23T00:29:21.338Z,62.94
2022-12-23T00:31:23.548Z,62.73
2022-12-23T00:33:30.132Z,62.78
2022-12-23T00:35:32.635Z,63.31
2022-12-23T00:37:34.918Z,62.99
2022-12-23T00:39:56.970Z,63.12
2022-12-23T00:42:21.214Z,63.05
2022-12-23T00:44:24.025Z,62.79
2022-12-23T00:46:26.640Z,62.81
2022-12-23T00:48:46.901Z,62.65
2022-12-23T00:50:52.559Z,63.04
2022-12-23T00:52:54.718Z,63.12
2022-12-23T00:54:56.934Z,63.05
2022-12-23T00:57:02.277Z,62.92
2022-12-23T00:59:04.355Z,62.89
2022-12-23T01:01:26.136Z,63.48
2022-12-23T01:03:47.586Z,63.61
2022-12-23T01:05:49.547Z,63.25
2022-12-23T01:07:51.515Z,63.73
2022-12-23T01:09:53.805Z,64.16
2022-12-23T01:11:56.233Z,64.23
2022-12-23T01:13:59.069Z,63.82
2022-12-23T01:16:09.347Z,63.71
2022-12-23T01:18:14.334Z,63.23
2022-12-23T01:20:16.705Z,63.42
2022-12-23T01:22:18.862Z,63.78
2022-12-23T01:24:20.921Z,63.70
2022-12-23T01:26:23.183Z,63.60
2022-12-23T01:28:25.793Z,63.48
2022-12-23T01:30:28.046Z,63.66
2022-12-23T01:32:30.294Z,63.40
2022-12-23T01:34:36.755Z,63.84
2022-12-23T01:36:39.832Z,63.79
2022-12-23T01:38:42.167Z,64.56
2022-12-23T01:40:45.666Z,64.50
2022-12-23T01:42:47.956Z,64.75
2022-12-23T01:44:56.004Z,65.03
2022-12-23T01:46:58.224Z,64.64
2022-12-23T01:49:00.238Z,64.66
2022-12-23T01:51:28.104Z,64.81
2022-12-23T01:53:33.399Z,64.38
2022-12-23T01:55:44.898Z,64.55
2022-12-23T01:57:50.418Z,64.41
2022-12-23T02:00:11.629Z,64.89
2022-12-23T02:02:32.333Z,65.13
2022-12-23T02:04:34.659Z,64.89
2022-12-23T02:07:01.283Z,64.86
2022-12-23T02:09:19.245Z,64.91
2022-12-23T02:11:44.344Z,65.28
2022-12-23T02:14:31.283Z,64.71
2022-12-23T02:16:40.637Z,64.69
2022-12-23T02:18:53.947Z,64.78
2022-12-23T02:21:02.043Z,64.72
2022-12-23T02:23:31.899Z,65.18
2022-12-23T02:26:06.021Z,64.65
2022-12-23T02:28:43.939Z,65.28
2022-12-23T02:30:57.352Z,64.90
2022-12-23T02:33:15.597Z,64.86
2022-12-23T02:35:27.021Z,64.73
2022-12-23T02:37:52.759Z,64.83
2022-12-23T02:40:12.980Z,64.66
2022-12-23T02:42:20.773Z,64.71
2022-12-23T02:44:55.280Z,64.81
2022-12-23T02:47:13.263Z,65.24
2022-12-23T02:49:30.797Z,65.12
2022-12-23T02:51:38.484Z,65.02
2022-12-23T02:53:50.190Z,65.27
2022-12-23T02:55:56.315Z,66.10
2022-12-23T02:58:03.218Z,67.22
2022-12-23T03:00:07.158Z,65.86
2022-12-23T03:02:09.499Z,65.82
2022-12-23T03:04:11.900Z,65.79
2022-12-23T03:06:21.846Z,65.75
2022-12-23T03:08:34.906Z,66.14
2022-12-23T03:10:58.328Z,66.78
2022-12-23T03:13:09.734Z,66.22
2022-12-23T03:15:14.742Z,66.10
2022-12-23T03:17:38.329Z,66.67
2022-12-23T03:19:55.823Z,66.14
2022-12-23T03:22:20.749Z,66.83
2022-12-23T03:24:37.849Z,66.95
2022-12-23T03:26:49.845Z,66.56
2022-12-23T03:29:02.229Z,66.64
2022-12-23T03:31:11.225Z,66.61
2022-12-23T03:33:22.555Z,66.97
2022-12-23T03:35:34.423Z,67.25
2022-12-23T03:37:41.997Z,66.59
2022-12-23T03:39:54.497Z,66.83
2022-12-23T03:42:10.980Z,66.71
2022-12-23T03:44:36.316Z,67.40
2022-12-23T03:46:47.457Z,66.25
2022-12-23T03:48:53.916Z,66.22
2022-12-23T03:51:04.527Z,66.65
2022-12-23T03:53:21.722Z,66.67
2022-12-23T03:55:30.722Z,66.50
2022-12-23T03:58:03.370Z,67.54
2022-12-23T04:00:06.810Z,67.40
2022-12-23T04:02:19.357Z,67.66
2022-12-23T04:04:32.055Z,66.88
2022-12-23T04:07:05.033Z,66.86
2022-12-23T04:09:08.648Z,66.70
2022-12-23T04:11:11.425Z,67.31
2022-12-23T04:13:13.731Z,66.87
2022-12-23T04:15:21.458Z,67.27
2022-12-23T04:17:23.817Z,66.57
2022-12-23T04:19:26.268Z,66.69
2022-12-23T04:21:28.811Z,66.65
2022-12-23T04:23:33.545Z,66.49
2022-12-23T04:25:35.683Z,66.58
2022-12-23T04:27:38.115Z,66.33
2022-12-23T04:29:40.942Z,66.68
2022-12-23T04:31:43.213Z,66.84
2022-12-23T04:33:45.699Z,67.02
2022-12-23T04:35:48.050Z,66.68
2022-12-23T04:37:50.224Z,67.03
2022-12-23T04:39:52.316Z,66.86
2022-12-23T04:41:54.612Z,67.15
2022-12-23T04:43:56.568Z,66.97
2022-12-23T04:45:58.780Z,66.89
2022-12-23T04:48:00.664Z,66.38
2022-12-23T04:50:02.948Z,66.55
2022-12-23T04:52:05.073Z,66.39
2022-12-23T04:54:07.356Z,66.41
2022-12-23T04:56:09.271Z,66.55
2022-12-23T04:58:11.271Z,66.75
2022-12-23T05:00:14.221Z,66.88
2022-12-23T05:02:16.529Z,66.66
2022-12-23T05:04:18.848Z,66.73
2022-12-23T05:06:20.915Z,66.41
2022-12-23T05:08:23.014Z,66.68
2022-12-23T05:10:25.071Z,66.40
2022-12-23T05:12:28.339Z,66.46
2022-12-23T05:14:30.404Z,66.84
2022-12-23T05:16:32.646Z,66.83
2022-12-23T05:18:34.836Z,66.74
2022-12-23T05:20:36.887Z,67.03
2022-12-23T05:22:39.091Z,66.84
2022-12-23T05:24:41.213Z,67.48
2022-12-23T05:26:47.690Z,67.20
2022-12-23T05:28:50.798Z,67.52
2022-12-23T05:31:07.128Z,68.02
2022-12-23T05:33:11.830Z,67.46
2022-12-23T05:35:13.851Z,67.70
2022-12-23T05:37:15.878Z,67.58
2022-12-23T05:39:18.311Z,67.57
2022-12-23T05:41:20.250Z,67.40
2022-12-23T05:43:22.644Z,67.65
2022-12-23T05:45:26.641Z,67.84
2022-12-23T05:47:29.201Z,67.90
2022-12-23T05:49:31.353Z,67.98
2022-12-23T05:51:33.683Z,68.35
2022-12-23T05:53:35.599Z,68.35
2022-12-23T05:55:37.688Z,68.47
2022-12-23T05:57:39.739Z,68.21
2022-12-23T05:59:43.113Z,68.30
2022-12-23T06:01:45.194Z,68.65
2022-12-23T06:03:47.561Z,68.31
2022-12-23T06:05:52.836Z,68.72
2022-12-23T06:07:54.917Z,68.62
2022-12-23T06:09:57.131Z,68.53
2022-12-23T06:11:59.278Z,68.60
2022-12-23T06:14:02.801Z,68.57
2022-12-23T06:16:04.984Z,68.82
2022-12-23T06:18:07.105Z,68.49
2022-12-23T06:20:16.166Z,68.83
2022-12-23T06:22:23.562Z,68.96
2022-12-23T06:24:25.521Z,68.65
2022-12-23T06:26:30.532Z,68.99
2022-12-23T06:28:32.528Z,69.00
2022-12-23T06:30:39.591Z,68.96
2022-12-23T06:32:41.831Z,69.07
2022-12-23T06:34:43.912Z,68.88
2022-12-23T06:36:46.196Z,68.72
2022-12-23T06:38:48.497Z,68.76
2022-12-23T06:40:50.541Z,68.92
2022-12-23T06:42:55.600Z,68.58
2022-12-23T06:44:57.603Z,68.56
2022-12-23T06:46:59.756Z,68.66
2022-12-23T06:49:04.996Z,69.21
2022-12-23T06:51:12.868Z,69.43
2022-12-23T06:53:14.981Z,69.43
2022-12-23T06:55:17.501Z,69.76
2022-12-23T06:57:19.945Z,69.74
2022-12-23T06:59:22.062Z,69.81
2022-12-23T07:01:24.068Z,69.22
2022-12-23T07:03:26.463Z,69.93
2022-12-23T07:05:36.503Z,70.07
2022-12-23T07:07:39.511Z,69.88
2022-12-23T07:09:41.567Z,69.96
2022-12-23T07:11:43.870Z,70.30
2022-12-23T07:13:47.132Z,70.55
2022-12-23T07:15:49.933Z,70.34
2022-12-23T07:17:52.019Z,70.16
2022-12-23T07:19:54.266Z,70.40
2022-12-23T07:21:56.354Z,70.31
2022-12-23T07:23:58.842Z,70.63
2022-12-23T07:26:01.105Z,70.39
2022-12-23T07:28:03.405Z,70.38
2022-12-23T07:30:06.127Z,70.45
2022-12-23T07:32:08.666Z,70.74
2022-12-23T07:34:10.665Z,71.30
2022-12-23T07:36:13.884Z,71.70
2022-12-23T07:38:16.024Z,70.94
2022-12-23T07:40:18.480Z,71.08
2022-12-23T07:44:42.534Z,70.89
2022-12-23T07:46:44.697Z,70.93
2022-12-23T07:48:46.936Z,70.74
2022-12-23T07:50:51.738Z,70.65
2022-12-23T07:52:54.874Z,70.55
2022-12-23T07:54:56.884Z,70.98
2022-12-23T07:56:59.277Z,71.25
2022-12-23T07:59:01.344Z,71.18
2022-12-23T08:01:06.352Z,71.48
2022-12-23T08:03:10.167Z,71.64
2022-12-23T08:05:13.615Z,71.29
2022-12-23T08:07:15.708Z,71.45
2022-12-23T08:09:17.936Z,71.47
2022-12-23T08:11:20.327Z,71.42
2022-12-23T08:13:22.417Z,71.76
2022-12-23T08:15:24.685Z,71.51
2022-12-23T08:17:31.609Z,71.72
2022-12-23T08:19:34.332Z,71.75
2022-12-23T08:21:36.533Z,71.67
2022-12-23T08:23:41.304Z,71.34
2022-12-23T08:25:43.453Z,71.85
2022-12-23T08:27:45.594Z,71.67
2022-12-23T08:29:47.745Z,71.70
2022-12-23T08:31:50.664Z,71.76
2022-12-23T08:33:55.344Z,72.07
2022-12-23T08:35:57.516Z,72.14
2022-12-23T08:37:59.959Z,72.14
2022-12-23T08:40:02.062Z,71.98
2022-12-23T08:42:04.353Z,72.12
2022-12-23T08:44:06.754Z,72.32
2022-12-23T08:46:10.318Z,72.38
2022-12-23T08:48:13.882Z,72.17
2022-12-23T08:50:17.715Z,72.30
2022-12-23T08:52:20.059Z,71.87
2022-12-23T08:54:23.953Z,71.70
2022-12-23T08:56:28.810Z,71.82
2022-12-23T08:58:31.744Z,71.63
2022-12-23T09:00:33.832Z,71.75
2022-12-23T09:02:36.269Z,71.78
2022-12-23T09:04:38.521Z,71.97
2022-12-23T09:06:42.615Z,71.80
2022-12-23T09:08:45.042Z,71.84
2022-12-23T09:10:47.062Z,71.70
2022-12-23T09:12:50.315Z,71.91
2022-12-23T09:14:52.638Z,72.10
2022-12-23T09:16:54.934Z,71.93
2022-12-23T09:18:57.691Z,72.35
2022-12-23T09:21:01.946Z,72.03
2022-12-23T09:23:05.288Z,72.20
2022-12-23T09:25:07.757Z,72.00
2022-12-23T09:27:10.235Z,71.96
2022-12-23T09:29:12.279Z,72.04
2022-12-23T09:31:15.071Z,72.42
2022-12-23T09:33:17.580Z,72.01
2022-12-23T09:35:20.076Z,72.24
2022-12-23T09:37:22.347Z,72.21
2022-12-23T09:39:26.583Z,72.34
2022-12-23T09:42:03.760Z,72.70
2022-12-23T09:44:31.656Z,72.80
2022-12-23T09:46:34.752Z,72.03
2022-12-23T09:48:45.757Z,72.06
2022-12-23T09:50:48.442Z,72.18
2022-12-23T09:53:04.563Z,72.80
2022-12-23T09:55:11.519Z,72.34
2022-12-23T09:57:23.474Z,72.13
2022-12-23T09:59:45.835Z,72.48
2022-12-23T10:02:19.362Z,72.65
2022-12-23T10:04:45.371Z,72.92
2022-12-23T10:06:56.350Z,72.28
2022-12-23T10:09:04.905Z,72.28
2022-12-23T10:11:15.851Z,72.44
2022-12-23T10:13:39.599Z,72.24
2022-12-23T10:15:48.573Z,72.45
2022-12-23T10:17:55.680Z,72.41
2022-12-23T10:20:02.621Z,72.45
2022-12-23T10:22:10.590Z,72.15
2022-12-23T10:24:47.414Z,72.43
2022-12-23T10:26:52.009Z,72.06
2022-12-23T10:29:10.276Z,72.98
2022-12-23T10:31:42.606Z,72.80
2022-12-23T10:34:00.394Z,72.99
2022-12-23T10:36:28.885Z,73.06
2022-12-23T10:38:59.270Z,73.42
2022-12-23T10:41:09.433Z,72.93
2022-12-23T10:43:30.476Z,72.66
2022-12-23T10:45:41.688Z,72.74
2022-12-23T10:48:05.113Z,73.67
2022-12-23T10:54:33.388Z,73.52
2022-12-23T10:56:35.794Z,72.66
2022-12-23T10:58:42.499Z,73.52
2022-12-23T11:01:15.105Z,73.60
2022-12-23T11:03:36.674Z,73.64
2022-12-23T11:05:39.095Z,72.86
2022-12-23T11:07:45.707Z,72.77
2022-12-23T11:09:54.397Z,72.76
2022-12-23T11:12:02.346Z,72.83
2022-12-23T11:14:04.520Z,72.73
2022-12-23T11:16:28.058Z,73.33
2022-12-23T11:18:30.111Z,72.58
2022-12-23T11:20:33.737Z,72.75
2022-12-23T11:22:35.726Z,72.54
2022-12-23T11:24:43.158Z,72.33
2022-12-23T11:26:59.723Z,73.00
2022-12-23T11:29:17.484Z,72.92
2022-12-23T11:31:32.631Z,73.20
2022-12-23T11:33:38.755Z,72.35
2022-12-23T11:35:41.227Z,72.85
2022-12-23T11:37:43.917Z,72.52
2022-12-23T11:39:47.107Z,72.58
2022-12-23T11:41:53.325Z,72.34
2022-12-23T11:44:49.339Z,73.01
2022-12-23T11:46:52.506Z,72.41
2022-12-23T11:49:19.905Z,73.03
2022-12-23T11:51:26.875Z,72.70
2022-12-23T11:53:29.264Z,72.37
2022-12-23T11:55:33.190Z,72.46
2022-12-23T11:57:49.567Z,72.97
2022-12-23T11:59:58.265Z,72.35
2022-12-23T12:02:30.620Z,73.17
2022-12-23T12:04:36.115Z,72.24
2022-12-23T12:06:48.423Z,72.59
2022-12-23T12:08:57.434Z,72.24
2022-12-23T12:11:07.860Z,72.41
2022-12-23T12:13:36.636Z,72.48
2022-12-23T12:15:50.003Z,72.67
2022-12-23T12:17:55.524Z,72.24
2022-12-23T12:20:00.494Z,72.04
2022-12-23T12:22:06.307Z,72.16
2022-12-23T12:24:19.631Z,72.27
2022-12-23T12:26:30.355Z,72.87
2022-12-23T12:28:40.500Z,72.61
2022-12-23T12:30:50.588Z,72.67
2022-12-23T12:32:59.497Z,72.52
2022-12-23T12:35:25.897Z,72.56
2022-12-23T12:37:50.640Z,72.45
2022-12-23T12:40:01.791Z,72.04
2022-12-23T12:42:16.097Z,72.40
2022-12-23T12:44:33.190Z,71.95
2022-12-23T12:46:44.074Z,72.42
2022-12-23T12:49:06.512Z,72.06
2022-12-23T12:51:26.735Z,72.53
2022-12-23T12:53:32.152Z,72.28
2022-12-23T12:55:40.043Z,71.98
2022-12-23T12:57:42.219Z,72.20
2022-12-23T12:59:45.447Z,71.75
2022-12-23T13:01:50.576Z,72.12
2022-12-23T13:04:28.470Z,72.40
2022-12-23T13:07:08.858Z,71.99
2022-12-23T13:09:42.103Z,71.63
2022-12-23T13:11:58.053Z,71.57
2022-12-23T13:14:20.245Z,71.51
2022-12-23T13:16:50.121Z,71.82
2022-12-23T13:19:14.049Z,71.32
2022-12-23T13:21:53.248Z,71.16
2022-12-23T13:24:04.202Z,71.14
2022-12-23T13:26:45.401Z,70.89
2022-12-23T13:28:51.469Z,70.35
2022-12-23T13:31:15.818Z,70.01
2022-12-23T13:33:44.077Z,69.64
2022-12-23T13:36:06.050Z,69.68
2022-12-23T13:38:12.123Z,69.64
2022-12-23T13:40:20.262Z,69.57
2022-12-23T13:42:30.421Z,69.00
2022-12-23T13:44:35.654Z,69.12
2022-12-23T13:46:52.175Z,68.59
2022-12-23T13:49:12.156Z,68.75
2022-12-23T13:51:24.016Z,68.60
2022-12-23T13:53:55.292Z,68.20
2022-12-23T13:56:30.155Z,68.32
2022-12-23T13:58:33.863Z,68.23
2022-12-23T14:00:36.020Z,68.63
2022-12-23T14:02:38.247Z,68.50
2022-12-23T14:05:00.187Z,68.07
2022-12-23T14:07:19.247Z,67.86
2022-12-23T14:10:23.203Z,67.88
2022-12-23T14:12:31.343Z,67.78
2022-12-23T14:14:33.411Z,68.18
2022-12-23T14:16:40.805Z,67.85
2022-12-23T14:18:54.297Z,68.02
2022-12-23T14:21:20.406Z,67.69
2022-12-23T14:24:24.128Z,67.77
2022-12-23T14:26:38.156Z,67.91
2022-12-23T14:29:05.529Z,67.90
2022-12-23T14:31:36.695Z,68.12
2022-12-23T14:33:39.547Z,68.03
2022-12-23T14:35:42.918Z,67.91
2022-12-23T14:38:14.207Z,67.89
2022-12-23T14:40:38.126Z,68.07
2022-12-23T14:42:43.217Z,67.95
2022-12-23T14:44:49.863Z,68.12
2022-12-23T14:46:54.436Z,68.50
2022-12-23T14:49:22.534Z,68.26
2022-12-23T14:51:45.257Z,68.34
2022-12-23T14:53:53.894Z,68.47
2022-12-23T14:56:16.473Z,68.44
2022-12-23T14:58:46.590Z,68.79
2022-12-23T15:01:02.681Z,68.71
2022-12-23T15:03:04.987Z,68.29
2022-12-23T15:05:07.838Z,68.29
2022-12-23T15:07:42.678Z,68.96
2022-12-23T15:09:58.675Z,68.98
2022-12-23T15:12:12.935Z,69.06
2022-12-23T15:14:31.595Z,68.96
2022-12-23T15:16:36.927Z,69.30
2022-12-23T15:18:52.805Z,69.50
2022-12-23T15:21:02.801Z,69.38
2022-12-23T15:23:17.965Z,69.54
2022-12-23T15:25:30.102Z,69.41
2022-12-23T15:27:36.543Z,69.30
2022-12-23T15:29:44.006Z,69.67
2022-12-23T15:31:50.699Z,69.34
2022-12-23T15:34:03.446Z,69.44
2022-12-23T15:36:07.167Z,69.90
2022-12-23T15:38:16.387Z,69.93
2022-12-23T15:40:27.752Z,69.96
2022-12-23T15:42:38.599Z,70.00
2022-12-23T15:44:40.869Z,70.16
2022-12-23T15:46:43.872Z,70.12
2022-12-23T15:48:47.379Z,70.03
2022-12-23T15:50:53.525Z,70.34
2022-12-23T15:53:00.163Z,70.21
2022-12-23T15:55:14.448Z,70.52
2022-12-23T15:57:19.672Z,70.21
2022-12-23T15:59:25.957Z,70.38
2022-12-23T16:01:36.475Z,70.35
2022-12-23T16:03:49.287Z,70.71
2022-12-23T16:05:51.710Z,70.40
2022-12-23T16:08:26.736Z,70.78
2022-12-23T16:10:31.621Z,70.46
2022-12-23T16:12:37.694Z,70.45
2022-12-23T16:14:41.619Z,70.35
2022-12-23T16:16:44.317Z,70.26
2022-12-23T16:18:49.472Z,70.14
2022-12-23T16:21:01.520Z,70.52
2022-12-23T16:23:03.936Z,70.44
2022-12-23T16:25:16.655Z,70.59
2022-12-23T16:27:25.476Z,70.47
2022-12-23T16:29:27.585Z,70.12
2022-12-23T16:31:29.982Z,69.99
2022-12-23T16:33:39.941Z,69.90
2022-12-23T16:35:43.576Z,69.42
2022-12-23T16:37:50.905Z,69.82
2022-12-23T16:39:53.573Z,69.57
2022-12-23T16:41:55.658Z,69.42
2022-12-23T16:43:58.331Z,69.77
2022-12-23T16:46:00.893Z,69.79
2022-12-23T16:48:10.439Z,69.91
2022-12-23T16:50:15.149Z,69.50
2022-12-23T16:52:17.363Z,69.87
2022-12-23T16:54:20.453Z,69.50
2022-12-23T16:56:28.500Z,69.75
2022-12-23T16:58:30.921Z,69.64
2022-12-23T17:00:33.833Z,69.29
2022-12-23T17:02:36.533Z,69.71
2022-12-23T17:04:39.921Z,69.53
2022-12-23T17:06:42.506Z,69.86
2022-12-23T17:08:44.837Z,69.90
2022-12-23T17:10:47.310Z,69.70
2022-12-23T17:12:50.556Z,69.47
2022-12-23T17:14:52.676Z,69.39
2022-12-23T17:16:54.804Z,69.22
2022-12-23T17:18:57.233Z,69.43
2022-12-23T17:20:59.394Z,69.62
2022-12-23T17:23:01.672Z,69.20
2022-12-23T17:25:29.527Z,69.47
2022-12-23T17:27:31.821Z,69.45
2022-12-23T17:29:34.363Z,69.38
2022-12-23T17:31:36.801Z,69.28
2022-12-23T17:33:42.064Z,69.39
2022-12-23T17:35:44.423Z,69.29
2022-12-23T17:37:46.796Z,68.91
2022-12-23T17:39:49.504Z,68.93
2022-12-23T17:41:51.795Z,68.91
2022-12-23T17:43:54.769Z,69.01
2022-12-23T17:45:57.007Z,68.87
2022-12-23T17:48:00.713Z,68.93
2022-12-23T17:50:03.241Z,69.04
2022-12-23T17:52:07.167Z,69.23
2022-12-23T17:54:20.943Z,68.97
2022-12-23T17:56:24.777Z,69.19
2022-12-23T17:58:27.378Z,69.03
2022-12-23T18:00:34.415Z,69.11
2022-12-23T18:02:38.800Z,69.25
2022-12-23T18:04:41.291Z,69.23
2022-12-23T18:06:45.637Z,69.20
2022-12-23T18:08:48.136Z,68.95
2022-12-23T18:10:50.475Z,69.01
2022-12-23T18:13:17.191Z,69.26
2022-12-23T18:15:46.097Z,69.09
2022-12-23T18:17:48.941Z,68.80
2022-12-23T18:19:51.289Z,68.52
2022-12-23T18:21:53.889Z,68.83
2022-12-23T18:23:59.759Z,68.58
2022-12-23T18:26:02.137Z,68.41
2022-12-23T18:28:04.735Z,68.12
2022-12-23T18:30:07.476Z,67.74
2022-12-23T18:32:23.777Z,67.74
2022-12-23T18:34:26.709Z,67.61
2022-12-23T18:36:31.330Z,67.85
2022-12-23T18:38:33.492Z,67.61
2022-12-23T18:40:35.725Z,67.57
2022-12-23T18:42:37.683Z,67.71
2022-12-23T18:44:41.207Z,67.28
2022-12-23T18:46:43.856Z,67.30
2022-12-23T18:48:46.545Z,67.28
2022-12-23T18:50:54.791Z,67.13
2022-12-23T18:52:58.720Z,67.38
2022-12-23T18:55:01.834Z,66.99
2022-12-23T18:57:08.299Z,67.33
2022-12-23T18:59:29.151Z,66.65
2022-12-23T19:01:34.634Z,66.58
2022-12-23T19:03:43.571Z,67.08
2022-12-23T19:05:47.478Z,66.66
2022-12-23T19:07:50.368Z,66.83
2022-12-23T19:09:52.682Z,66.63
2022-12-23T19:12:23.823Z,66.50
2022-12-23T19:14:26.092Z,67.00
2022-12-23T19:16:34.546Z,66.46
2022-12-23T19:18:48.958Z,66.37
2022-12-23T19:21:06.310Z,66.61
2022-12-23T19:23:08.711Z,66.67
2022-12-23T19:30:33.435Z,66.67
2022-12-23T19:32:36.922Z,66.33
2022-12-23T19:34:39.074Z,66.26
2022-12-23T19:36:41.219Z,66.57
2022-12-23T19:38:44.031Z,66.41
2022-12-23T19:40:46.153Z,66.67
2022-12-23T19:42:48.253Z,66.53
2022-12-23T19:44:50.512Z,66.50
2022-12-23T19:46:52.625Z,66.43
2022-12-23T19:48:55.188Z,66.42
2022-12-23T19:51:05.997Z,66.55
2022-12-23T19:53:08.278Z,66.37
2022-12-23T19:55:10.942Z,66.31
2022-12-23T19:57:13.063Z,66.35
2022-12-23T19:59:15.541Z,66.33
2022-12-23T20:01:22.899Z,66.27
2022-12-23T20:03:25.309Z,66.38
2022-12-23T20:05:27.425Z,66.48
2022-12-23T20:07:29.381Z,66.16
2022-12-23T20:09:34.739Z,66.00
2022-12-23T20:11:43.211Z,65.82
2022-12-23T20:13:45.756Z,65.74
2022-12-23T20:15:50.989Z,65.90
2022-12-23T20:17:53.644Z,66.17
2022-12-23T20:19:55.763Z,66.10
2022-12-23T20:21:57.785Z,66.12
2022-12-23T20:24:00.122Z,65.92
2022-12-23T20:26:02.589Z,65.91
2022-12-23T20:28:04.866Z,66.13
2022-12-23T20:30:07.476Z,65.98
2022-12-23T20:32:09.612Z,65.81
2022-12-23T20:34:16.637Z,66.06
2022-12-23T20:36:23.876Z,65.72
2022-12-23T20:38:26.160Z,65.94
2022-12-23T20:40:28.236Z,66.22
2022-12-23T20:42:30.231Z,66.08
2022-12-23T20:44:35.649Z,65.99
2022-12-23T20:46:38.490Z,66.12
2022-12-23T20:48:41.871Z,66.07
2022-12-23T20:50:45.032Z,66.09
2022-12-23T20:52:47.689Z,65.99
2022-12-23T20:54:49.978Z,65.83
2022-12-23T20:56:52.120Z,65.93
2022-12-23T20:58:55.398Z,65.81
2022-12-23T21:01:08.889Z,66.00
2022-12-23T21:03:11.447Z,66.13
2022-12-23T21:05:13.647Z,66.08
2022-12-23T21:07:15.947Z,66.28
2022-12-23T21:09:18.370Z,66.26
2022-12-23T21:11:20.485Z,66.32
2022-12-23T21:13:22.422Z,66.42
2022-12-23T21:15:24.633Z,66.08
2022-12-23T21:17:26.823Z,65.94
2022-12-23T21:19:29.241Z,66.38
2022-12-23T21:21:32.139Z,66.22
2022-12-23T21:23:40.965Z,65.93
2022-12-23T21:25:45.157Z,66.19
2022-12-23T21:27:47.441Z,66.22
2022-12-23T21:29:49.440Z,66.30
2022-12-23T21:31:52.000Z,66.35
2022-12-23T21:33:54.987Z,66.04
2022-12-23T21:35:57.419Z,66.10
2022-12-23T21:37:59.762Z,66.09
2022-12-23T21:40:04.111Z,66.17
2022-12-23T21:42:06.791Z,66.22
2022-12-23T21:44:11.727Z,66.08
2022-12-23T21:46:16.725Z,66.03
2022-12-23T21:48:18.938Z,66.06
2022-12-23T21:50:20.824Z,66.17
2022-12-23T21:52:22.998Z,66.08
2022-12-23T21:54:25.417Z,65.93
2022-12-23T21:56:29.959Z,66.20
2022-12-23T21:58:33.918Z,66.07
2022-12-23T22:00:36.401Z,66.13
2022-12-23T22:02:38.570Z,66.48
2022-12-23T22:04:40.811Z,66.26
2022-12-23T22:06:44.500Z,66.03
2022-12-23T22:08:47.938Z,66.18
2022-12-23T22:10:50.794Z,65.98
2022-12-23T22:12:53.219Z,66.16
2022-12-23T22:14:55.665Z,66.09
2022-12-23T22:17:00.801Z,66.29
2022-12-23T22:19:04.396Z,66.07
2022-12-23T22:21:10.486Z,66.23
2022-12-23T22:23:12.439Z,66.29
2022-12-23T22:25:15.015Z,66.29
2022-12-23T22:27:17.062Z,66.43
2022-12-23T22:29:19.288Z,66.33
2022-12-23T22:31:32.465Z,66.50
2022-12-23T22:33:35.485Z,66.45
2022-12-23T22:36:02.420Z,66.13
2022-12-23T22:38:04.596Z,66.27
2022-12-23T22:40:07.764Z,66.37
2022-12-23T22:42:09.767Z,66.10
2022-12-23T22:44:13.434Z,66.34
2022-12-23T22:46:16.484Z,66.29
2022-12-23T22:48:19.163Z,66.59
2022-12-23T22:50:21.395Z,66.54
2022-12-23T22:52:23.418Z,66.11
2022-12-23T22:54:28.244Z,66.22
2022-12-23T22:56:30.615Z,66.60
2022-12-23T22:58:34.114Z,66.32
2022-12-23T23:00:36.547Z,66.50
2022-12-23T23:02:38.485Z,66.40
2022-12-23T23:04:40.571Z,66.67
2022-12-23T23:06:43.283Z,66.55
2022-12-23T23:08:45.766Z,66.71
2022-12-23T23:10:47.860Z,66.42
2022-12-23T23:12:50.098Z,66.67
2022-12-23T23:14:55.177Z,66.64
2022-12-23T23:16:59.355Z,66.58
2022-12-23T23:19:02.015Z,66.66
2022-12-23T23:21:04.060Z,66.48
2022-12-23T23:23:06.533Z,66.63
2022-12-23T23:25:09.192Z,66.48
2022-12-23T23:27:12.314Z,66.72
2022-12-23T23:29:14.871Z,66.50
2022-12-23T23:31:41.841Z,66.51
2022-12-23T23:33:39.014Z,66.64
2022-12-23T23:35:44.074Z,66.72
2022-12-23T23:37:46.710Z,66.61
2022-12-23T23:39:48.840Z,66.73
2022-12-23T23:41:53.842Z,66.79
2022-12-23T23:43:56.444Z,66.73
2022-12-23T23:46:01.373Z,66.77
2022-12-23T23:48:03.434Z,66.98
2022-12-23T23:50:06.717Z,66.76
2022-12-23T23:52:08.865Z,67.17
2022-12-23T23:54:11.061Z,66.72
2022-12-23T23:56:13.497Z,67.10
2022-12-23T23:58:15.799Z,66.67
